sensor_id;sensor_type;location;lat;lon;timestamp;temperature;humidity
74364;DHT22;62797;49.740;10.154;2023-06-19T00:00:27;22.20;23.50
74364;DHT22;62797;49.740;10.154;2023-06-19T00:02:55;22.20;23.60
74364;DHT22;62797;49.740;10.154;2023-06-19T00:05:21;22.10;23.70
74364;DHT22;62797;49.740;10.154;2023-06-19T00:07:48;22.10;24.10
74364;DHT22;62797;49.740;10.154;2023-06-19T00:10:14;22.10;24.20
74364;DHT22;62797;49.740;10.154;2023-06-19T00:12:40;22.10;24.60
74364;DHT22;62797;49.740;10.154;2023-06-19T00:15:06;22.00;24.80
74364;DHT22;62797;49.740;10.154;2023-06-19T00:17:34;22.00;25.00
74364;DHT22;62797;49.740;10.154;2023-06-19T00:20:03;22.00;24.80
74364;DHT22;62797;49.740;10.154;2023-06-19T00:22:31;22.10;24.70
74364;DHT22;62797;49.740;10.154;2023-06-19T00:24:57;22.00;24.70
74364;DHT22;62797;49.740;10.154;2023-06-19T00:27:23;22.00;24.70
74364;DHT22;62797;49.740;10.154;2023-06-19T00:29:51;22.00;24.80
74364;DHT22;62797;49.740;10.154;2023-06-19T00:32:18;21.90;25.00
74364;DHT22;62797;49.740;10.154;2023-06-19T00:34:44;21.80;25.00
74364;DHT22;62797;49.740;10.154;2023-06-19T00:37:10;21.70;24.90
74364;DHT22;62797;49.740;10.154;2023-06-19T00:39:39;21.70;24.90
74364;DHT22;62797;49.740;10.154;2023-06-19T00:42:08;21.70;24.80
74364;DHT22;62797;49.740;10.154;2023-06-19T00:44:34;21.70;24.90
74364;DHT22;62797;49.740;10.154;2023-06-19T00:47:02;21.60;24.90
74364;DHT22;62797;49.740;10.154;2023-06-19T00:49:29;21.50;25.30
74364;DHT22;62797;49.740;10.154;2023-06-19T00:51:56;21.50;24.40
74364;DHT22;62797;49.740;10.154;2023-06-19T00:54:22;21.40;24.00
74364;DHT22;62797;49.740;10.154;2023-06-19T00:56:48;21.30;24.30
74364;DHT22;62797;49.740;10.154;2023-06-19T00:59:20;21.20;24.30
74364;DHT22;62797;49.740;10.154;2023-06-19T01:01:46;21.10;24.50
74364;DHT22;62797;49.740;10.154;2023-06-19T01:04:13;20.90;24.40
74364;DHT22;62797;49.740;10.154;2023-06-19T01:09:13;20.90;24.60
74364;DHT22;62797;49.740;10.154;2023-06-19T01:11:44;20.80;24.70
74364;DHT22;62797;49.740;10.154;2023-06-19T01:14:20;20.80;24.80
74364;DHT22;62797;49.740;10.154;2023-06-19T01:16:47;20.70;24.70
74364;DHT22;62797;49.740;10.154;2023-06-19T01:19:15;20.70;24.70
74364;DHT22;62797;49.740;10.154;2023-06-19T01:21:41;20.60;24.80
74364;DHT22;62797;49.740;10.154;2023-06-19T01:24:07;20.60;25.00
74364;DHT22;62797;49.740;10.154;2023-06-19T01:26:33;20.50;25.00
74364;DHT22;62797;49.740;10.154;2023-06-19T01:28:59;20.50;25.20
74364;DHT22;62797;49.740;10.154;2023-06-19T01:31:37;20.40;25.30
74364;DHT22;62797;49.740;10.154;2023-06-19T01:34:06;20.40;25.10
74364;DHT22;62797;49.740;10.154;2023-06-19T01:36:35;20.30;25.70
74364;DHT22;62797;49.740;10.154;2023-06-19T01:39:01;20.20;26.20
74364;DHT22;62797;49.740;10.154;2023-06-19T01:41:32;20.10;26.80
74364;DHT22;62797;49.740;10.154;2023-06-19T01:43:58;20.10;27.60
74364;DHT22;62797;49.740;10.154;2023-06-19T01:46:24;20.00;27.90
74364;DHT22;62797;49.740;10.154;2023-06-19T01:48:50;20.00;28.10
74364;DHT22;62797;49.740;10.154;2023-06-19T01:51:16;20.00;28.20
74364;DHT22;62797;49.740;10.154;2023-06-19T01:53:42;19.90;28.70
74364;DHT22;62797;49.740;10.154;2023-06-19T01:56:09;19.80;28.80
74364;DHT22;62797;49.740;10.154;2023-06-19T01:58:35;19.90;28.60
74364;DHT22;62797;49.740;10.154;2023-06-19T02:01:01;19.80;28.40
74364;DHT22;62797;49.740;10.154;2023-06-19T02:03:26;19.70;28.70
74364;DHT22;62797;49.740;10.154;2023-06-19T02:05:52;19.70;28.50
74364;DHT22;62797;49.740;10.154;2023-06-19T02:08:19;19.70;28.00
74364;DHT22;62797;49.740;10.154;2023-06-19T02:10:45;19.60;28.20
74364;DHT22;62797;49.740;10.154;2023-06-19T02:13:10;19.50;28.10
74364;DHT22;62797;49.740;10.154;2023-06-19T02:15:36;19.50;27.90
74364;DHT22;62797;49.740;10.154;2023-06-19T02:18:02;19.50;27.60
74364;DHT22;62797;49.740;10.154;2023-06-19T02:20:28;19.40;27.40
74364;DHT22;62797;49.740;10.154;2023-06-19T02:22:55;19.40;27.50
74364;DHT22;62797;49.740;10.154;2023-06-19T02:25:21;19.40;27.30
74364;DHT22;62797;49.740;10.154;2023-06-19T02:27:47;19.30;27.30
74364;DHT22;62797;49.740;10.154;2023-06-19T02:30:13;19.40;27.60
74364;DHT22;62797;49.740;10.154;2023-06-19T02:32:39;19.30;27.90
74364;DHT22;62797;49.740;10.154;2023-06-19T02:35:07;19.30;28.60
74364;DHT22;62797;49.740;10.154;2023-06-19T02:37:36;19.20;28.50
74364;DHT22;62797;49.740;10.154;2023-06-19T02:40:05;19.20;28.70
74364;DHT22;62797;49.740;10.154;2023-06-19T02:42:32;19.30;28.70
74364;DHT22;62797;49.740;10.154;2023-06-19T02:44:58;19.20;28.80
74364;DHT22;62797;49.740;10.154;2023-06-19T02:47:29;19.20;28.80
74364;DHT22;62797;49.740;10.154;2023-06-19T02:49:57;19.10;29.00
74364;DHT22;62797;49.740;10.154;2023-06-19T02:52:23;19.10;28.90
74364;DHT22;62797;49.740;10.154;2023-06-19T02:54:48;19.10;28.40
74364;DHT22;62797;49.740;10.154;2023-06-19T02:57:14;19.20;28.40
74364;DHT22;62797;49.740;10.154;2023-06-19T02:59:42;19.20;27.10
74364;DHT22;62797;49.740;10.154;2023-06-19T03:02:07;19.40;25.50
74364;DHT22;62797;49.740;10.154;2023-06-19T03:04:33;19.50;25.30
74364;DHT22;62797;49.740;10.154;2023-06-19T03:06:59;19.60;25.00
74364;DHT22;62797;49.740;10.154;2023-06-19T03:09:26;19.60;24.70
74364;DHT22;62797;49.740;10.154;2023-06-19T03:11:52;19.80;24.30
74364;DHT22;62797;49.740;10.154;2023-06-19T03:14:19;19.90;24.10
74364;DHT22;62797;49.740;10.154;2023-06-19T03:16:44;20.00;23.70
74364;DHT22;62797;49.740;10.154;2023-06-19T03:19:10;20.10;23.70
74364;DHT22;62797;49.740;10.154;2023-06-19T03:21:36;20.10;23.60
74364;DHT22;62797;49.740;10.154;2023-06-19T03:24:02;20.20;23.40
74364;DHT22;62797;49.740;10.154;2023-06-19T03:26:27;20.30;23.40
74364;DHT22;62797;49.740;10.154;2023-06-19T03:28:58;20.40;23.20
74364;DHT22;62797;49.740;10.154;2023-06-19T03:31:26;20.40;23.10
74364;DHT22;62797;49.740;10.154;2023-06-19T03:33:53;20.50;23.30
74364;DHT22;62797;49.740;10.154;2023-06-19T03:36:20;20.50;23.30
74364;DHT22;62797;49.740;10.154;2023-06-19T03:38:51;20.60;23.00
74364;DHT22;62797;49.740;10.154;2023-06-19T03:41:20;20.60;23.00
74364;DHT22;62797;49.740;10.154;2023-06-19T03:43:47;20.60;22.90
74364;DHT22;62797;49.740;10.154;2023-06-19T03:46:13;20.70;23.00
74364;DHT22;62797;49.740;10.154;2023-06-19T03:48:39;20.70;23.00
74364;DHT22;62797;49.740;10.154;2023-06-19T03:51:07;20.70;22.90
74364;DHT22;62797;49.740;10.154;2023-06-19T03:53:33;20.80;22.90
74364;DHT22;62797;49.740;10.154;2023-06-19T03:55:58;20.80;23.00
74364;DHT22;62797;49.740;10.154;2023-06-19T03:58:25;20.90;23.20
74364;DHT22;62797;49.740;10.154;2023-06-19T04:00:51;20.90;23.20
74364;DHT22;62797;49.740;10.154;2023-06-19T04:03:17;20.90;23.80
74364;DHT22;62797;49.740;10.154;2023-06-19T04:05:45;20.90;23.70
74364;DHT22;62797;49.740;10.154;2023-06-19T04:08:11;21.00;23.90
74364;DHT22;62797;49.740;10.154;2023-06-19T04:10:37;21.00;24.00
74364;DHT22;62797;49.740;10.154;2023-06-19T04:13:03;21.10;23.80
74364;DHT22;62797;49.740;10.154;2023-06-19T04:15:31;21.20;24.00
74364;DHT22;62797;49.740;10.154;2023-06-19T04:17:58;21.20;23.90
74364;DHT22;62797;49.740;10.154;2023-06-19T04:20:26;21.30;24.00
74364;DHT22;62797;49.740;10.154;2023-06-19T04:22:52;21.30;24.10
74364;DHT22;62797;49.740;10.154;2023-06-19T04:25:19;21.30;24.30
74364;DHT22;62797;49.740;10.154;2023-06-19T04:27:46;21.40;24.40
74364;DHT22;62797;49.740;10.154;2023-06-19T04:30:12;21.40;24.60
74364;DHT22;62797;49.740;10.154;2023-06-19T04:32:38;21.50;24.80
74364;DHT22;62797;49.740;10.154;2023-06-19T04:35:08;21.50;24.90
74364;DHT22;62797;49.740;10.154;2023-06-19T04:37:33;21.60;24.90
74364;DHT22;62797;49.740;10.154;2023-06-19T04:39:59;21.70;25.00
74364;DHT22;62797;49.740;10.154;2023-06-19T04:42:25;21.70;25.00
74364;DHT22;62797;49.740;10.154;2023-06-19T04:44:51;21.80;24.90
74364;DHT22;62797;49.740;10.154;2023-06-19T04:47:21;21.80;25.50
74364;DHT22;62797;49.740;10.154;2023-06-19T04:49:48;21.90;25.10
74364;DHT22;62797;49.740;10.154;2023-06-19T04:52:13;21.90;25.00
74364;DHT22;62797;49.740;10.154;2023-06-19T04:54:41;22.00;25.00
74364;DHT22;62797;49.740;10.154;2023-06-19T04:57:07;22.00;25.20
74364;DHT22;62797;49.740;10.154;2023-06-19T04:59:32;22.10;25.20
74364;DHT22;62797;49.740;10.154;2023-06-19T05:01:59;22.10;25.60
74364;DHT22;62797;49.740;10.154;2023-06-19T05:04:24;22.10;25.50
74364;DHT22;62797;49.740;10.154;2023-06-19T05:06:51;22.10;25.60
74364;DHT22;62797;49.740;10.154;2023-06-19T05:09:17;22.20;25.80
74364;DHT22;62797;49.740;10.154;2023-06-19T05:11:43;22.10;25.80
74364;DHT22;62797;49.740;10.154;2023-06-19T05:14:09;22.20;26.00
74364;DHT22;62797;49.740;10.154;2023-06-19T05:16:35;22.20;26.20
74364;DHT22;62797;49.740;10.154;2023-06-19T05:19:01;22.20;26.60
74364;DHT22;62797;49.740;10.154;2023-06-19T05:21:26;22.30;26.40
74364;DHT22;62797;49.740;10.154;2023-06-19T05:23:53;22.40;26.00
74364;DHT22;62797;49.740;10.154;2023-06-19T05:26:19;22.40;25.70
74364;DHT22;62797;49.740;10.154;2023-06-19T05:28:46;22.40;26.10
74364;DHT22;62797;49.740;10.154;2023-06-19T05:31:12;22.40;26.10
74364;DHT22;62797;49.740;10.154;2023-06-19T05:33:38;22.40;26.10
74364;DHT22;62797;49.740;10.154;2023-06-19T05:36:04;22.50;26.20
74364;DHT22;62797;49.740;10.154;2023-06-19T05:38:30;22.50;26.30
74364;DHT22;62797;49.740;10.154;2023-06-19T05:40:57;22.50;26.40
74364;DHT22;62797;49.740;10.154;2023-06-19T05:43:22;22.50;26.40
74364;DHT22;62797;49.740;10.154;2023-06-19T05:45:50;22.50;27.00
74364;DHT22;62797;49.740;10.154;2023-06-19T05:48:16;22.50;26.60
74364;DHT22;62797;49.740;10.154;2023-06-19T05:50:42;22.70;26.60
74364;DHT22;62797;49.740;10.154;2023-06-19T05:53:08;22.70;26.90
74364;DHT22;62797;49.740;10.154;2023-06-19T05:55:33;22.70;26.70
74364;DHT22;62797;49.740;10.154;2023-06-19T05:58:02;22.80;26.90
74364;DHT22;62797;49.740;10.154;2023-06-19T06:00:29;22.80;26.90
74364;DHT22;62797;49.740;10.154;2023-06-19T06:02:58;22.90;26.90
74364;DHT22;62797;49.740;10.154;2023-06-19T06:05:27;22.90;27.30
74364;DHT22;62797;49.740;10.154;2023-06-19T06:07:56;22.90;26.90
74364;DHT22;62797;49.740;10.154;2023-06-19T06:10:23;23.00;27.40
74364;DHT22;62797;49.740;10.154;2023-06-19T06:12:49;23.10;27.10
74364;DHT22;62797;49.740;10.154;2023-06-19T06:15:15;23.00;27.10
74364;DHT22;62797;49.740;10.154;2023-06-19T06:17:42;23.00;27.00
74364;DHT22;62797;49.740;10.154;2023-06-19T06:20:08;23.10;27.60
74364;DHT22;62797;49.740;10.154;2023-06-19T06:22:41;23.20;26.70
74364;DHT22;62797;49.740;10.154;2023-06-19T06:25:08;23.30;26.60
74364;DHT22;62797;49.740;10.154;2023-06-19T06:27:36;23.30;26.50
74364;DHT22;62797;49.740;10.154;2023-06-19T06:30:02;23.30;26.60
74364;DHT22;62797;49.740;10.154;2023-06-19T06:32:28;23.40;26.40
74364;DHT22;62797;49.740;10.154;2023-06-19T06:34:57;23.50;25.90
74364;DHT22;62797;49.740;10.154;2023-06-19T06:37:23;23.50;26.10
74364;DHT22;62797;49.740;10.154;2023-06-19T06:39:49;23.70;26.10
74364;DHT22;62797;49.740;10.154;2023-06-19T06:42:18;23.80;25.80
74364;DHT22;62797;49.740;10.154;2023-06-19T06:44:44;23.90;25.70
74364;DHT22;62797;49.740;10.154;2023-06-19T06:47:10;23.90;25.70
74364;DHT22;62797;49.740;10.154;2023-06-19T06:49:36;23.90;25.40
74364;DHT22;62797;49.740;10.154;2023-06-19T06:52:06;24.00;25.40
74364;DHT22;62797;49.740;10.154;2023-06-19T06:54:32;24.00;26.00
74364;DHT22;62797;49.740;10.154;2023-06-19T06:56:58;24.10;25.40
74364;DHT22;62797;49.740;10.154;2023-06-19T06:59:26;24.20;25.60
74364;DHT22;62797;49.740;10.154;2023-06-19T07:01:53;24.10;25.40
74364;DHT22;62797;49.740;10.154;2023-06-19T07:04:19;24.10;25.40
74364;DHT22;62797;49.740;10.154;2023-06-19T07:06:45;24.20;25.20
74364;DHT22;62797;49.740;10.154;2023-06-19T07:09:11;24.20;25.20
74364;DHT22;62797;49.740;10.154;2023-06-19T07:11:37;24.30;24.90
74364;DHT22;62797;49.740;10.154;2023-06-19T07:14:02;24.30;25.20
74364;DHT22;62797;49.740;10.154;2023-06-19T07:16:28;24.40;24.60
74364;DHT22;62797;49.740;10.154;2023-06-19T07:18:54;24.30;25.10
74364;DHT22;62797;49.740;10.154;2023-06-19T07:21:20;24.40;25.20
74364;DHT22;62797;49.740;10.154;2023-06-19T07:23:46;24.60;24.90
74364;DHT22;62797;49.740;10.154;2023-06-19T07:26:14;24.70;24.50
74364;DHT22;62797;49.740;10.154;2023-06-19T07:28:41;24.60;24.40
74364;DHT22;62797;49.740;10.154;2023-06-19T07:31:07;24.60;25.00
74364;DHT22;62797;49.740;10.154;2023-06-19T07:33:33;24.60;25.10
74364;DHT22;62797;49.740;10.154;2023-06-19T07:36:00;24.50;24.30
74364;DHT22;62797;49.740;10.154;2023-06-19T07:38:28;24.60;24.30
74364;DHT22;62797;49.740;10.154;2023-06-19T07:40:53;24.60;25.00
74364;DHT22;62797;49.740;10.154;2023-06-19T07:43:19;24.70;25.10
74364;DHT22;62797;49.740;10.154;2023-06-19T07:45:48;24.70;24.80
74364;DHT22;62797;49.740;10.154;2023-06-19T07:48:16;24.70;24.90
74364;DHT22;62797;49.740;10.154;2023-06-19T07:50:42;24.80;24.90
74364;DHT22;62797;49.740;10.154;2023-06-19T07:53:09;24.60;25.00
74364;DHT22;62797;49.740;10.154;2023-06-19T07:55:34;24.60;25.40
74364;DHT22;62797;49.740;10.154;2023-06-19T07:58:01;24.60;25.00
74364;DHT22;62797;49.740;10.154;2023-06-19T08:00:26;24.70;25.20
74364;DHT22;62797;49.740;10.154;2023-06-19T08:02:52;24.60;25.30
74364;DHT22;62797;49.740;10.154;2023-06-19T08:05:18;24.60;25.50
74364;DHT22;62797;49.740;10.154;2023-06-19T08:07:44;24.70;25.50
74364;DHT22;62797;49.740;10.154;2023-06-19T08:10:10;24.60;25.80
74364;DHT22;62797;49.740;10.154;2023-06-19T08:12:36;24.50;25.60
74364;DHT22;62797;49.740;10.154;2023-06-19T08:15:01;24.50;26.70
74364;DHT22;62797;49.740;10.154;2023-06-19T08:17:27;24.50;26.30
74364;DHT22;62797;49.740;10.154;2023-06-19T08:19:53;24.70;25.90
74364;DHT22;62797;49.740;10.154;2023-06-19T08:22:19;24.80;26.40
74364;DHT22;62797;49.740;10.154;2023-06-19T08:24:45;24.80;25.90
74364;DHT22;62797;49.740;10.154;2023-06-19T08:27:13;24.80;25.90
74364;DHT22;62797;49.740;10.154;2023-06-19T08:29:42;24.80;26.00
74364;DHT22;62797;49.740;10.154;2023-06-19T08:32:09;24.80;26.10
74364;DHT22;62797;49.740;10.154;2023-06-19T08:34:35;25.00;26.30
74364;DHT22;62797;49.740;10.154;2023-06-19T08:37:05;25.20;26.20
74364;DHT22;62797;49.740;10.154;2023-06-19T08:39:34;25.40;25.60
74364;DHT22;62797;49.740;10.154;2023-06-19T08:42:08;25.50;24.90
74364;DHT22;62797;49.740;10.154;2023-06-19T08:44:35;25.50;24.70
74364;DHT22;62797;49.740;10.154;2023-06-19T08:47:05;25.60;24.70
74364;DHT22;62797;49.740;10.154;2023-06-19T08:49:35;25.70;23.40
74364;DHT22;62797;49.740;10.154;2023-06-19T08:52:04;25.70;24.10
74364;DHT22;62797;49.740;10.154;2023-06-19T08:54:31;25.80;24.80
74364;DHT22;62797;49.740;10.154;2023-06-19T08:57:00;25.80;24.60
74364;DHT22;62797;49.740;10.154;2023-06-19T08:59:27;25.80;24.50
74364;DHT22;62797;49.740;10.154;2023-06-19T09:01:54;25.70;24.80
74364;DHT22;62797;49.740;10.154;2023-06-19T09:04:31;25.70;25.10
74364;DHT22;62797;49.740;10.154;2023-06-19T09:07:00;25.60;25.50
74364;DHT22;62797;49.740;10.154;2023-06-19T09:09:28;25.60;25.50
74364;DHT22;62797;49.740;10.154;2023-06-19T09:12:02;25.60;25.60
74364;DHT22;62797;49.740;10.154;2023-06-19T09:14:35;25.80;26.30
74364;DHT22;62797;49.740;10.154;2023-06-19T09:17:11;26.00;25.80
74364;DHT22;62797;49.740;10.154;2023-06-19T09:19:38;26.20;25.30
74364;DHT22;62797;49.740;10.154;2023-06-19T09:22:07;26.30;23.90
74364;DHT22;62797;49.740;10.154;2023-06-19T09:29:36;26.40;24.00
74364;DHT22;62797;49.740;10.154;2023-06-19T09:32:23;26.70;24.20
74364;DHT22;62797;49.740;10.154;2023-06-19T09:34:52;27.10;23.40
74364;DHT22;62797;49.740;10.154;2023-06-19T09:37:22;27.40;22.70
74364;DHT22;62797;49.740;10.154;2023-06-19T09:40:01;27.30;22.40
74364;DHT22;62797;49.740;10.154;2023-06-19T09:42:36;27.10;22.90
74364;DHT22;62797;49.740;10.154;2023-06-19T09:45:05;27.00;22.90
74364;DHT22;62797;49.740;10.154;2023-06-19T09:47:35;27.00;22.80
74364;DHT22;62797;49.740;10.154;2023-06-19T09:50:02;26.80;23.40
74364;DHT22;62797;49.740;10.154;2023-06-19T09:52:29;26.80;23.60
74364;DHT22;62797;49.740;10.154;2023-06-19T09:55:03;26.90;23.30
74364;DHT22;62797;49.740;10.154;2023-06-19T09:57:31;27.20;22.70
74364;DHT22;62797;49.740;10.154;2023-06-19T09:59:58;27.40;22.50
74364;DHT22;62797;49.740;10.154;2023-06-19T10:02:26;27.40;22.40
74364;DHT22;62797;49.740;10.154;2023-06-19T10:04:56;27.70;22.20
74364;DHT22;62797;49.740;10.154;2023-06-19T10:07:32;27.80;22.40
74364;DHT22;62797;49.740;10.154;2023-06-19T10:12:37;27.60;21.90
74364;DHT22;62797;49.740;10.154;2023-06-19T10:15:18;27.50;22.10
74364;DHT22;62797;49.740;10.154;2023-06-19T10:17:52;27.60;22.10
74364;DHT22;62797;49.740;10.154;2023-06-19T10:20:24;27.60;22.60
74364;DHT22;62797;49.740;10.154;2023-06-19T10:25:38;27.70;22.10
74364;DHT22;62797;49.740;10.154;2023-06-19T10:28:15;27.60;22.70
74364;DHT22;62797;49.740;10.154;2023-06-19T10:30:41;27.60;22.40
74364;DHT22;62797;49.740;10.154;2023-06-19T10:33:07;27.50;22.90
74364;DHT22;62797;49.740;10.154;2023-06-19T10:35:40;27.70;22.20
74364;DHT22;62797;49.740;10.154;2023-06-19T10:38:07;28.10;21.60
74364;DHT22;62797;49.740;10.154;2023-06-19T10:40:36;28.30;21.70
74364;DHT22;62797;49.740;10.154;2023-06-19T10:43:02;28.30;21.80
74364;DHT22;62797;49.740;10.154;2023-06-19T10:45:29;28.60;20.70
74364;DHT22;62797;49.740;10.154;2023-06-19T10:47:55;28.60;20.90
74364;DHT22;62797;49.740;10.154;2023-06-19T10:50:22;28.60;21.00
74364;DHT22;62797;49.740;10.154;2023-06-19T10:52:52;28.70;20.80
74364;DHT22;62797;49.740;10.154;2023-06-19T10:55:19;28.50;20.90
74364;DHT22;62797;49.740;10.154;2023-06-19T10:57:47;28.40;21.50
74364;DHT22;62797;49.740;10.154;2023-06-19T11:00:34;28.30;21.10
74364;DHT22;62797;49.740;10.154;2023-06-19T11:03:00;28.60;20.80
74364;DHT22;62797;49.740;10.154;2023-06-19T11:05:27;28.70;20.00
74364;DHT22;62797;49.740;10.154;2023-06-19T11:07:57;28.70;19.90
74364;DHT22;62797;49.740;10.154;2023-06-19T11:10:28;28.60;20.10
74364;DHT22;62797;49.740;10.154;2023-06-19T11:12:58;28.70;20.60
74364;DHT22;62797;49.740;10.154;2023-06-19T11:15:32;28.60;20.70
74364;DHT22;62797;49.740;10.154;2023-06-19T11:18:02;28.90;20.20
74364;DHT22;62797;49.740;10.154;2023-06-19T11:20:28;29.30;19.00
74364;DHT22;62797;49.740;10.154;2023-06-19T11:22:59;29.20;19.40
74364;DHT22;62797;49.740;10.154;2023-06-19T11:25:38;29.10;19.30
74364;DHT22;62797;49.740;10.154;2023-06-19T11:28:14;29.10;19.40
74364;DHT22;62797;49.740;10.154;2023-06-19T11:30:41;29.10;18.60
74364;DHT22;62797;49.740;10.154;2023-06-19T11:33:21;28.90;19.40
74364;DHT22;62797;49.740;10.154;2023-06-19T11:35:53;28.90;19.80
74364;DHT22;62797;49.740;10.154;2023-06-19T11:38:24;29.10;19.80
74364;DHT22;62797;49.740;10.154;2023-06-19T11:40:50;29.10;19.50
74364;DHT22;62797;49.740;10.154;2023-06-19T11:43:34;29.10;20.00
74364;DHT22;62797;49.740;10.154;2023-06-19T11:46:06;29.10;20.40
74364;DHT22;62797;49.740;10.154;2023-06-19T11:48:32;29.10;19.30
74364;DHT22;62797;49.740;10.154;2023-06-19T11:50:57;29.20;19.80
74364;DHT22;62797;49.740;10.154;2023-06-19T11:53:24;29.40;19.10
74364;DHT22;62797;49.740;10.154;2023-06-19T11:55:51;29.30;19.00
74364;DHT22;62797;49.740;10.154;2023-06-19T11:58:17;29.40;18.30
74364;DHT22;62797;49.740;10.154;2023-06-19T12:00:46;29.60;18.50
74364;DHT22;62797;49.740;10.154;2023-06-19T12:03:11;29.80;17.20
74364;DHT22;62797;49.740;10.154;2023-06-19T12:05:37;29.60;17.80
74364;DHT22;62797;49.740;10.154;2023-06-19T12:08:03;29.60;18.90
74364;DHT22;62797;49.740;10.154;2023-06-19T12:10:30;29.90;17.70
74364;DHT22;62797;49.740;10.154;2023-06-19T12:12:56;29.80;18.00
74364;DHT22;62797;49.740;10.154;2023-06-19T12:15:22;30.00;18.10
74364;DHT22;62797;49.740;10.154;2023-06-19T12:17:52;30.00;17.60
74364;DHT22;62797;49.740;10.154;2023-06-19T12:20:18;29.90;18.20
74364;DHT22;62797;49.740;10.154;2023-06-19T12:22:44;29.70;18.60
74364;DHT22;62797;49.740;10.154;2023-06-19T12:25:11;29.80;18.30
74364;DHT22;62797;49.740;10.154;2023-06-19T12:27:40;29.70;17.90
74364;DHT22;62797;49.740;10.154;2023-06-19T12:30:07;29.70;18.00
74364;DHT22;62797;49.740;10.154;2023-06-19T12:32:33;29.80;18.20
74364;DHT22;62797;49.740;10.154;2023-06-19T12:35:00;29.90;18.80
74364;DHT22;62797;49.740;10.154;2023-06-19T12:37:28;30.20;17.80
74364;DHT22;62797;49.740;10.154;2023-06-19T12:39:54;30.40;17.70
74364;DHT22;62797;49.740;10.154;2023-06-19T12:42:20;30.40;18.20
74364;DHT22;62797;49.740;10.154;2023-06-19T12:44:49;30.40;18.20
74364;DHT22;62797;49.740;10.154;2023-06-19T12:47:15;30.50;17.00
74364;DHT22;62797;49.740;10.154;2023-06-19T12:49:43;30.60;18.10
74364;DHT22;62797;49.740;10.154;2023-06-19T12:52:09;30.60;17.80
74364;DHT22;62797;49.740;10.154;2023-06-19T12:54:35;30.70;17.80
74364;DHT22;62797;49.740;10.154;2023-06-19T12:57:02;30.90;16.20
74364;DHT22;62797;49.740;10.154;2023-06-19T12:59:27;30.70;16.70
74364;DHT22;62797;49.740;10.154;2023-06-19T13:01:54;30.80;16.20
74364;DHT22;62797;49.740;10.154;2023-06-19T13:04:20;31.00;17.00
74364;DHT22;62797;49.740;10.154;2023-06-19T13:06:46;31.00;16.30
74364;DHT22;62797;49.740;10.154;2023-06-19T13:09:12;31.00;15.80
74364;DHT22;62797;49.740;10.154;2023-06-19T13:11:38;31.00;15.90
74364;DHT22;62797;49.740;10.154;2023-06-19T13:14:04;31.00;16.30
74364;DHT22;62797;49.740;10.154;2023-06-19T13:16:30;31.30;15.30
74364;DHT22;62797;49.740;10.154;2023-06-19T13:18:59;31.30;16.30
74364;DHT22;62797;49.740;10.154;2023-06-19T13:21:25;31.30;16.00
74364;DHT22;62797;49.740;10.154;2023-06-19T13:23:51;31.60;15.30
74364;DHT22;62797;49.740;10.154;2023-06-19T13:26:17;31.60;16.80
74364;DHT22;62797;49.740;10.154;2023-06-19T13:28:43;31.70;15.50
74364;DHT22;62797;49.740;10.154;2023-06-19T13:31:09;31.70;15.20
74364;DHT22;62797;49.740;10.154;2023-06-19T13:33:35;31.80;15.10
74364;DHT22;62797;49.740;10.154;2023-06-19T13:36:01;31.90;15.00
74364;DHT22;62797;49.740;10.154;2023-06-19T13:38:27;31.80;14.60
74364;DHT22;62797;49.740;10.154;2023-06-19T13:40:53;31.70;14.70
74364;DHT22;62797;49.740;10.154;2023-06-19T13:43:22;31.60;15.00
74364;DHT22;62797;49.740;10.154;2023-06-19T13:45:49;31.60;14.70
74364;DHT22;62797;49.740;10.154;2023-06-19T13:48:15;31.50;14.00
74364;DHT22;62797;49.740;10.154;2023-06-19T13:50:41;31.30;14.50
74364;DHT22;62797;49.740;10.154;2023-06-19T13:53:10;31.10;14.90
74364;DHT22;62797;49.740;10.154;2023-06-19T13:55:36;30.80;15.20
74364;DHT22;62797;49.740;10.154;2023-06-19T13:58:02;30.80;16.10
74364;DHT22;62797;49.740;10.154;2023-06-19T14:00:28;30.80;14.90
74364;DHT22;62797;49.740;10.154;2023-06-19T14:02:54;30.80;15.40
74364;DHT22;62797;49.740;10.154;2023-06-19T14:05:20;30.90;15.20
74364;DHT22;62797;49.740;10.154;2023-06-19T14:07:51;30.90;14.50
74364;DHT22;62797;49.740;10.154;2023-06-19T14:10:17;30.90;15.50
74364;DHT22;62797;49.740;10.154;2023-06-19T14:12:46;30.80;15.10
74364;DHT22;62797;49.740;10.154;2023-06-19T14:15:12;30.80;15.60
74364;DHT22;62797;49.740;10.154;2023-06-19T14:17:37;30.70;15.90
74364;DHT22;62797;49.740;10.154;2023-06-19T14:20:04;30.70;16.00
74364;DHT22;62797;49.740;10.154;2023-06-19T14:22:31;30.80;14.60
74364;DHT22;62797;49.740;10.154;2023-06-19T14:24:56;30.60;15.10
74364;DHT22;62797;49.740;10.154;2023-06-19T14:27:25;30.50;15.90
74364;DHT22;62797;49.740;10.154;2023-06-19T14:29:51;30.50;16.10
74364;DHT22;62797;49.740;10.154;2023-06-19T14:32:19;30.40;16.30
74364;DHT22;62797;49.740;10.154;2023-06-19T14:34:44;30.50;15.90
74364;DHT22;62797;49.740;10.154;2023-06-19T14:37:10;30.60;16.20
74364;DHT22;62797;49.740;10.154;2023-06-19T14:39:36;30.80;15.40
74364;DHT22;62797;49.740;10.154;2023-06-19T14:42:02;30.90;15.10
74364;DHT22;62797;49.740;10.154;2023-06-19T14:44:28;31.10;14.90
74364;DHT22;62797;49.740;10.154;2023-06-19T14:46:53;31.00;15.40
74364;DHT22;62797;49.740;10.154;2023-06-19T14:49:21;30.90;14.40
74364;DHT22;62797;49.740;10.154;2023-06-19T14:51:46;30.80;15.50
74364;DHT22;62797;49.740;10.154;2023-06-19T14:54:12;30.90;15.10
74364;DHT22;62797;49.740;10.154;2023-06-19T14:56:40;31.00;15.50
74364;DHT22;62797;49.740;10.154;2023-06-19T14:59:05;31.30;15.70
74364;DHT22;62797;49.740;10.154;2023-06-19T15:01:31;31.40;14.30
74364;DHT22;62797;49.740;10.154;2023-06-19T15:03:57;31.30;14.60
74364;DHT22;62797;49.740;10.154;2023-06-19T15:06:22;31.20;13.90
74364;DHT22;62797;49.740;10.154;2023-06-19T15:08:48;31.10;14.50
74364;DHT22;62797;49.740;10.154;2023-06-19T15:11:14;31.30;14.80
74364;DHT22;62797;49.740;10.154;2023-06-19T15:13:40;31.70;13.40
74364;DHT22;62797;49.740;10.154;2023-06-19T15:16:05;32.20;13.40
74364;DHT22;62797;49.740;10.154;2023-06-19T15:18:33;32.50;12.20
74364;DHT22;62797;49.740;10.154;2023-06-19T15:20:59;32.50;12.30
74364;DHT22;62797;49.740;10.154;2023-06-19T15:23:24;32.70;13.00
74364;DHT22;62797;49.740;10.154;2023-06-19T15:25:50;32.90;11.70
74364;DHT22;62797;49.740;10.154;2023-06-19T15:28:17;32.80;10.90